createdAt,value
2023-01-19T00:01:34.630Z,8.40
2023-01-19T00:04:06.722Z,8.07
2023-01-19T00:06:39.271Z,8.23
2023-01-19T00:09:11.341Z,8.27
2023-01-19T00:11:43.351Z,7.82
2023-01-19T00:14:15.456Z,8.50
2023-01-19T00:16:47.434Z,8.70
2023-01-19T00:19:19.461Z,7.40
2023-01-19T00:21:51.415Z,9.00
2023-01-19T00:24:23.548Z,8.50
2023-01-19T00:26:55.596Z,9.52
2023-01-19T00:29:30.907Z,9.07
2023-01-19T00:32:05.412Z,8.93
2023-01-19T00:34:39.650Z,9.27
2023-01-19T00:37:13.363Z,7.80
2023-01-19T00:39:46.249Z,8.48
2023-01-19T00:42:36.677Z,7.88
2023-01-19T00:45:14.683Z,7.55
2023-01-19T00:47:54.682Z,8.88
2023-01-19T00:50:29.831Z,8.93
2023-01-19T00:53:03.387Z,8.93
2023-01-19T00:55:35.780Z,8.65
2023-01-19T00:58:07.836Z,7.90
2023-01-19T01:00:40.392Z,8.20
2023-01-19T01:03:12.490Z,9.25
2023-01-19T01:05:44.663Z,9.40
2023-01-19T01:08:16.666Z,9.13
2023-01-19T01:10:48.887Z,8.20
2023-01-19T01:13:22.592Z,9.48
2023-01-19T01:15:57.300Z,9.55
2023-01-19T01:18:29.552Z,7.95
2023-01-19T01:21:03.529Z,8.90
2023-01-19T01:23:36.794Z,8.55
2023-01-19T01:26:08.690Z,9.38
2023-01-19T01:28:40.721Z,9.57
2023-01-19T01:31:12.743Z,8.52
2023-01-19T01:33:44.807Z,9.55
2023-01-19T01:36:18.994Z,9.45
2023-01-19T01:38:51.563Z,8.90
2023-01-19T01:41:25.913Z,9.23
2023-01-19T01:44:01.696Z,9.98
2023-01-19T01:46:53.709Z,8.93
2023-01-19T01:49:25.799Z,10.02
2023-01-19T01:51:57.986Z,9.55
2023-01-19T01:54:32.685Z,10.27
2023-01-19T01:57:13.071Z,9.57
2023-01-19T01:59:48.313Z,9.27
2023-01-19T02:02:45.928Z,9.90
2023-01-19T02:05:35.061Z,9.23
2023-01-19T02:08:33.660Z,9.27
2023-01-19T02:11:44.245Z,8.18
2023-01-19T02:14:39.233Z,8.48
2023-01-19T02:17:11.463Z,9.00
2023-01-19T02:19:44.034Z,9.50
2023-01-19T02:22:35.943Z,9.90
2023-01-19T02:25:20.614Z,9.50
2023-01-19T02:27:53.444Z,8.52
2023-01-19T02:30:25.764Z,9.05
2023-01-19T02:32:59.299Z,8.32
2023-01-19T02:35:33.963Z,8.68
2023-01-19T02:38:09.081Z,9.18
2023-01-19T02:40:44.907Z,8.57
2023-01-19T02:43:19.457Z,8.75
2023-01-19T02:45:52.719Z,7.75
2023-01-19T02:48:25.432Z,8.40
2023-01-19T02:51:04.430Z,8.32
2023-01-19T02:54:12.328Z,10.00
2023-01-19T02:57:31.433Z,8.15
2023-01-19T03:00:40.895Z,8.35
2023-01-19T03:03:46.335Z,8.48
2023-01-19T03:06:51.303Z,8.43
2023-01-19T03:09:57.532Z,9.05
2023-01-19T03:12:47.259Z,9.55
2023-01-19T03:15:48.904Z,9.32
2023-01-19T03:18:29.137Z,8.25
2023-01-19T03:21:07.134Z,8.85
2023-01-19T03:23:44.163Z,8.18
2023-01-19T03:26:24.333Z,8.75
2023-01-19T03:29:02.223Z,9.20
2023-01-19T03:31:37.897Z,9.48
2023-01-19T03:34:14.998Z,9.63
2023-01-19T03:36:51.746Z,7.95
2023-01-19T03:39:28.942Z,7.95
2023-01-19T03:42:05.825Z,8.35
2023-01-19T03:44:43.733Z,9.10
2023-01-19T03:47:19.296Z,9.10
2023-01-19T03:49:53.446Z,8.95
2023-01-19T03:52:33.537Z,8.20
2023-01-19T03:55:06.681Z,7.47
2023-01-19T03:57:39.080Z,8.30
2023-01-19T04:00:11.927Z,9.40
2023-01-19T04:02:44.791Z,8.15
2023-01-19T04:05:17.542Z,7.70
2023-01-19T04:07:50.976Z,7.50
2023-01-19T04:10:23.490Z,8.60
2023-01-19T04:12:59.828Z,8.93
2023-01-19T04:15:33.036Z,8.05
2023-01-19T04:18:05.393Z,7.45
2023-01-19T04:20:37.706Z,8.95
2023-01-19T04:23:10.782Z,10.00
2023-01-19T04:25:42.706Z,8.85
2023-01-19T04:28:15.536Z,8.65
2023-01-19T04:30:51.042Z,8.75
2023-01-19T04:33:23.992Z,8.90
2023-01-19T04:35:57.464Z,9.23
2023-01-19T04:38:29.475Z,8.85
2023-01-19T04:41:01.459Z,7.90
2023-01-19T04:43:35.495Z,9.55
2023-01-19T04:46:07.741Z,9.70
2023-01-19T04:48:41.317Z,9.90
2023-01-19T04:51:14.051Z,8.82
2023-01-19T04:53:46.239Z,8.30
2023-01-19T04:56:18.240Z,8.30
2023-01-19T04:58:50.233Z,7.95
2023-01-19T05:01:22.489Z,8.15
2023-01-19T05:03:54.823Z,8.85
2023-01-19T05:06:29.443Z,8.52
2023-01-19T05:09:01.398Z,8.10
2023-01-19T05:11:34.062Z,9.23
2023-01-19T05:14:06.885Z,8.38
2023-01-19T05:16:39.054Z,8.85
2023-01-19T05:19:10.997Z,8.07
2023-01-19T05:21:43.037Z,9.30
2023-01-19T05:24:15.571Z,7.82
2023-01-19T05:26:47.778Z,7.68
2023-01-19T05:29:19.873Z,7.95
2023-01-19T05:31:52.121Z,8.43
2023-01-19T05:34:24.459Z,8.90
2023-01-19T05:36:56.441Z,9.25
2023-01-19T05:39:29.561Z,8.55
2023-01-19T05:42:01.856Z,9.10
2023-01-19T05:44:33.986Z,8.93
2023-01-19T05:47:06.379Z,7.32
2023-01-19T05:49:38.431Z,8.48
2023-01-19T05:52:10.344Z,8.75
2023-01-19T05:54:42.829Z,7.95
2023-01-19T05:57:14.912Z,8.45
2023-01-19T05:59:46.957Z,7.97
2023-01-19T06:02:19.061Z,8.25
2023-01-19T06:04:51.339Z,8.48
2023-01-19T06:07:24.580Z,8.88
2023-01-19T06:09:58.987Z,9.38
2023-01-19T06:12:32.545Z,8.73
2023-01-19T06:15:05.289Z,8.45
2023-01-19T06:17:57.159Z,8.98
2023-01-19T06:20:29.191Z,9.07
2023-01-19T06:23:01.692Z,8.48
2023-01-19T06:25:34.549Z,8.70
2023-01-19T06:28:06.563Z,9.82
2023-01-19T06:30:38.673Z,9.35
2023-01-19T06:33:11.253Z,9.65
2023-01-19T06:35:44.385Z,8.75
2023-01-19T06:38:19.387Z,9.88
2023-01-19T06:40:58.531Z,9.73
2023-01-19T06:43:31.516Z,8.68
2023-01-19T06:46:04.804Z,8.07
2023-01-19T06:48:36.950Z,8.90
2023-01-19T06:51:08.862Z,8.60
2023-01-19T06:53:40.823Z,10.38
2023-01-19T06:56:13.028Z,8.55
2023-01-19T06:58:47.316Z,8.70
2023-01-19T07:01:19.583Z,9.13
2023-01-19T07:03:51.880Z,9.25
2023-01-19T07:06:24.149Z,8.75
2023-01-19T07:08:56.229Z,8.27
2023-01-19T07:11:32.638Z,9.65
2023-01-19T07:14:05.107Z,8.75
2023-01-19T07:16:37.134Z,8.90
2023-01-19T07:19:10.846Z,8.27
2023-01-19T07:21:44.904Z,7.47
2023-01-19T07:24:17.053Z,8.48
2023-01-19T07:26:50.097Z,9.40
2023-01-19T07:29:22.183Z,8.35
2023-01-19T07:31:54.797Z,9.25
2023-01-19T07:34:27.058Z,10.18
2023-01-19T07:36:59.112Z,9.10
2023-01-19T07:39:32.002Z,8.95
2023-01-19T07:42:04.528Z,8.85
2023-01-19T07:44:37.246Z,8.07
2023-01-19T07:47:12.529Z,7.90
2023-01-19T07:49:59.914Z,8.88
2023-01-19T07:52:32.092Z,9.45
2023-01-19T07:55:04.234Z,9.02
2023-01-19T07:57:37.000Z,8.98
2023-01-19T08:00:09.679Z,8.55
2023-01-19T08:02:42.508Z,7.63
2023-01-19T08:05:17.733Z,7.40
2023-01-19T08:07:53.258Z,6.50
2023-01-19T08:10:29.303Z,6.90
2023-01-19T08:13:05.535Z,7.50
2023-01-19T08:15:37.871Z,6.82
2023-01-19T08:18:11.608Z,6.95
2023-01-19T08:20:52.515Z,7.28
2023-01-19T08:23:24.596Z,7.05
2023-01-19T08:25:57.260Z,6.78
2023-01-19T08:28:29.294Z,7.80
2023-01-19T08:31:18.987Z,7.70
2023-01-19T08:33:53.147Z,6.68
2023-01-19T08:36:25.561Z,6.90
2023-01-19T08:38:59.053Z,6.85
2023-01-19T08:41:31.275Z,7.85
2023-01-19T08:44:03.496Z,7.35
2023-01-19T08:46:35.790Z,7.40
2023-01-19T08:49:08.776Z,7.75
2023-01-19T08:51:41.098Z,8.35
2023-01-19T08:54:13.591Z,7.18
2023-01-19T08:56:47.478Z,6.90
2023-01-19T08:59:19.572Z,7.03
2023-01-19T09:01:51.765Z,7.93
2023-01-19T09:04:25.017Z,6.18
2023-01-19T09:06:57.331Z,7.32
2023-01-19T09:09:30.339Z,6.82
2023-01-19T09:12:07.540Z,6.95
2023-01-19T09:14:39.481Z,7.78
2023-01-19T09:17:14.600Z,7.35
2023-01-19T09:19:48.765Z,6.63
2023-01-19T09:22:21.049Z,6.85
2023-01-19T09:24:53.207Z,6.82
2023-01-19T09:27:25.421Z,8.13
2023-01-19T09:29:57.441Z,7.55
2023-01-19T09:32:29.690Z,6.43
2023-01-19T09:35:01.808Z,6.80
2023-01-19T09:37:34.098Z,7.30
2023-01-19T09:40:07.523Z,7.10
2023-01-19T09:42:44.524Z,6.75
2023-01-19T09:45:37.535Z,7.10
2023-01-19T09:48:47.958Z,7.10
2023-01-19T09:51:36.246Z,6.20
2023-01-19T09:54:17.281Z,6.63
2023-01-19T09:56:54.016Z,5.30
2023-01-19T09:59:28.841Z,7.32
2023-01-19T10:02:20.589Z,6.95
2023-01-19T10:05:24.135Z,6.22
2023-01-19T10:08:18.521Z,6.95
2023-01-19T10:11:51.577Z,7.28
2023-01-19T10:14:56.030Z,6.13
2023-01-19T10:17:58.271Z,6.35
2023-01-19T10:20:47.854Z,5.55
2023-01-19T10:23:44.218Z,6.82
2023-01-19T10:26:53.576Z,6.22
2023-01-19T10:29:36.750Z,7.25
2023-01-19T10:32:13.926Z,5.60
2023-01-19T10:34:57.133Z,6.30
2023-01-19T10:37:38.196Z,6.65
2023-01-19T10:40:11.712Z,5.13
2023-01-19T10:42:51.252Z,5.70
2023-01-19T10:46:02.466Z,5.95
2023-01-19T10:48:55.155Z,5.88
2023-01-19T10:51:28.671Z,5.05
2023-01-19T10:54:03.188Z,5.30
2023-01-19T10:56:37.093Z,5.60
2023-01-19T10:59:30.886Z,5.10
2023-01-19T11:02:22.852Z,5.22
2023-01-19T11:05:24.178Z,4.90
2023-01-19T11:07:58.682Z,5.82
2023-01-19T11:10:30.935Z,6.22
2023-01-19T11:13:13.175Z,4.88
2023-01-19T11:15:57.595Z,5.20
2023-01-19T11:18:38.605Z,5.20
2023-01-19T11:21:16.891Z,5.65
2023-01-19T11:23:56.935Z,5.57
2023-01-19T11:26:43.212Z,5.47
2023-01-19T11:29:26.774Z,5.40
2023-01-19T11:32:21.209Z,5.70
2023-01-19T11:35:54.055Z,5.63
2023-01-19T11:38:43.548Z,5.35
2023-01-19T11:41:19.895Z,5.20
2023-01-19T11:44:21.246Z,5.32
2023-01-19T11:47:01.011Z,5.97
2023-01-19T11:50:08.052Z,4.93
2023-01-19T11:53:04.573Z,5.03
2023-01-19T11:56:11.108Z,5.15
2023-01-19T11:58:48.611Z,5.00
2023-01-19T12:01:25.719Z,5.00
2023-01-19T12:04:23.264Z,4.70
2023-01-19T12:07:07.594Z,4.75
2023-01-19T12:09:46.899Z,4.78
2023-01-19T12:12:30.662Z,4.78
2023-01-19T12:15:21.292Z,5.38
2023-01-19T12:18:31.802Z,4.97
2023-01-19T12:21:10.090Z,5.22
2023-01-19T12:24:06.667Z,5.32
2023-01-19T12:26:59.112Z,5.25
2023-01-19T12:29:35.630Z,4.97
2023-01-19T12:32:13.910Z,5.40
2023-01-19T12:34:55.780Z,5.57
2023-01-19T12:37:41.728Z,5.40
2023-01-19T12:40:28.055Z,4.78
2023-01-19T12:43:05.477Z,5.55
2023-01-19T12:45:39.867Z,5.10
2023-01-19T12:48:26.355Z,6.13
2023-01-19T12:50:58.522Z,6.43
2023-01-19T12:53:31.060Z,7.00
2023-01-19T12:56:08.689Z,7.10
2023-01-19T12:58:49.970Z,7.15
2023-01-19T13:01:24.848Z,7.15
2023-01-19T13:03:59.513Z,7.07
2023-01-19T13:06:47.045Z,6.40
2023-01-19T13:09:38.606Z,7.10
2023-01-19T13:12:25.933Z,7.47
2023-01-19T13:15:45.171Z,7.07
2023-01-19T13:18:26.361Z,7.30
2023-01-19T13:21:28.336Z,6.88
2023-01-19T13:24:08.744Z,6.63
2023-01-19T13:27:03.874Z,6.45
2023-01-19T13:29:41.298Z,6.75
2023-01-19T13:32:18.863Z,6.35
2023-01-19T13:34:59.353Z,6.55
2023-01-19T13:37:39.803Z,5.45
2023-01-19T13:40:22.626Z,6.28
2023-01-19T13:42:59.126Z,6.05
2023-01-19T13:45:40.021Z,7.13
2023-01-19T13:48:22.394Z,4.88
2023-01-19T13:51:17.214Z,5.85
2023-01-19T13:54:01.686Z,5.65
2023-01-19T13:56:33.865Z,6.28
2023-01-19T13:59:12.771Z,6.80
2023-01-19T14:01:46.915Z,6.45
2023-01-19T14:04:33.445Z,6.00
2023-01-19T14:07:22.684Z,5.88
2023-01-19T14:10:05.585Z,5.55
2023-01-19T14:12:58.627Z,4.95
2023-01-19T14:15:35.202Z,5.70
2023-01-19T14:18:18.897Z,8.23
2023-01-19T14:21:07.846Z,6.55
2023-01-19T14:23:48.959Z,6.63
2023-01-19T14:26:43.852Z,7.05
2023-01-19T14:29:25.894Z,6.68
2023-01-19T14:32:18.540Z,8.60
2023-01-19T14:35:14.582Z,8.25
2023-01-19T14:37:54.759Z,8.95
2023-01-19T14:40:27.039Z,7.53
2023-01-19T14:43:06.244Z,8.30
2023-01-19T14:45:47.557Z,7.15
2023-01-19T14:48:22.248Z,9.38
2023-01-19T14:51:03.512Z,6.95
2023-01-19T14:53:39.179Z,6.88
2023-01-19T14:56:31.824Z,8.68
2023-01-19T14:59:09.991Z,10.02
2023-01-19T15:01:42.363Z,10.25
2023-01-19T15:04:14.565Z,10.38
2023-01-19T15:06:47.365Z,9.25
2023-01-19T15:09:19.819Z,8.43
2023-01-19T15:11:52.846Z,8.48
2023-01-19T15:14:25.160Z,8.25
2023-01-19T15:16:59.190Z,8.82
2023-01-19T15:19:31.873Z,10.43
2023-01-19T15:22:13.496Z,8.90
2023-01-19T15:24:45.687Z,8.07
2023-01-19T15:27:17.850Z,8.20
2023-01-19T15:29:50.425Z,8.57
2023-01-19T15:32:22.606Z,9.57
2023-01-19T15:34:55.005Z,7.25
2023-01-19T15:37:27.356Z,9.38
2023-01-19T15:40:00.177Z,8.13
2023-01-19T15:42:33.436Z,8.32
2023-01-19T15:45:36.014Z,8.63
2023-01-19T15:48:14.906Z,8.50
2023-01-19T15:50:47.866Z,8.52
2023-01-19T15:53:21.332Z,7.60
2023-01-19T15:55:57.883Z,8.27
2023-01-19T15:58:30.219Z,7.32
2023-01-19T16:01:02.651Z,7.50
2023-01-19T16:03:35.605Z,7.90
2023-01-19T16:06:08.850Z,7.05
2023-01-19T16:08:42.278Z,7.25
2023-01-19T16:11:16.177Z,6.88
2023-01-19T16:13:49.805Z,6.90
2023-01-19T16:16:33.411Z,6.72
2023-01-19T16:19:05.955Z,6.53
2023-01-19T16:21:38.424Z,6.32
2023-01-19T16:24:10.611Z,6.50
2023-01-19T16:26:42.907Z,6.75
2023-01-19T16:29:15.522Z,7.25
2023-01-19T16:31:48.533Z,7.70
2023-01-19T16:34:22.857Z,7.18
2023-01-19T16:36:57.116Z,7.80
2023-01-19T16:39:29.441Z,6.18
2023-01-19T16:42:01.917Z,6.82
2023-01-19T16:44:34.384Z,6.85
2023-01-19T16:47:06.974Z,7.10
2023-01-19T16:49:39.734Z,6.97
2023-01-19T16:52:13.531Z,8.27
2023-01-19T16:54:45.908Z,7.75
2023-01-19T16:57:18.474Z,6.80
2023-01-19T16:59:51.576Z,6.88
2023-01-19T17:02:23.714Z,8.05
2023-01-19T17:04:56.717Z,7.43
2023-01-19T17:07:31.466Z,7.25
2023-01-19T17:10:04.292Z,8.00
2023-01-19T17:12:37.779Z,7.57
2023-01-19T17:15:10.791Z,6.18
2023-01-19T17:17:43.187Z,6.57
2023-01-19T17:20:15.834Z,7.07
2023-01-19T17:22:48.124Z,7.30
2023-01-19T17:25:20.493Z,8.73
2023-01-19T17:27:52.813Z,7.75
2023-01-19T17:30:26.145Z,8.00
2023-01-19T17:32:59.468Z,9.95
2023-01-19T17:35:34.969Z,9.02
2023-01-19T17:38:07.974Z,9.88
2023-01-19T17:40:41.424Z,9.45
2023-01-19T17:43:14.667Z,10.18
2023-01-19T17:45:48.154Z,9.18
2023-01-19T17:48:21.374Z,8.73
2023-01-19T17:50:54.730Z,8.02
2023-01-19T17:53:37.887Z,9.23
2023-01-19T17:56:14.127Z,8.20
2023-01-19T17:58:48.978Z,9.50
2023-01-19T18:01:24.779Z,7.97
2023-01-19T18:04:01.006Z,8.18
2023-01-19T18:06:34.321Z,8.30
2023-01-19T18:09:17.943Z,8.60
2023-01-19T18:11:51.348Z,9.60
2023-01-19T18:14:25.249Z,8.60
2023-01-19T18:16:57.783Z,9.45
2023-01-19T18:19:30.190Z,8.75
2023-01-19T18:22:03.163Z,9.43
2023-01-19T18:24:51.015Z,9.13
2023-01-19T18:27:24.047Z,9.98
2023-01-19T18:29:56.887Z,8.75
2023-01-19T18:32:29.572Z,9.40
2023-01-19T18:35:02.720Z,8.50
2023-01-19T18:37:35.818Z,8.13
2023-01-19T18:40:09.386Z,8.32
2023-01-19T18:42:43.345Z,7.93
2023-01-19T18:45:16.823Z,9.65
2023-01-19T18:47:49.528Z,9.10
2023-01-19T18:50:22.435Z,8.98
2023-01-19T18:52:55.047Z,10.93
2023-01-19T18:55:29.256Z,10.35
2023-01-19T18:58:02.174Z,10.20
2023-01-19T19:00:36.689Z,12.80
2023-01-19T19:03:10.682Z,11.55
2023-01-19T19:05:43.765Z,9.45
2023-01-19T19:08:16.046Z,9.70
2023-01-19T19:10:48.516Z,8.48
2023-01-19T19:13:22.248Z,11.45
2023-01-19T19:16:01.769Z,11.27
2023-01-19T19:19:03.985Z,14.23
2023-01-19T19:21:36.851Z,22.17
2023-01-19T19:24:09.679Z,18.02
2023-01-19T19:26:44.295Z,17.15
2023-01-19T19:29:16.627Z,21.08
2023-01-19T19:31:49.078Z,13.65
2023-01-19T19:34:21.268Z,12.88
2023-01-19T19:36:55.722Z,12.82
2023-01-19T19:39:28.284Z,13.02
2023-01-19T19:42:00.611Z,12.20
2023-01-19T19:44:33.858Z,11.27
2023-01-19T19:47:06.476Z,11.70
2023-01-19T19:49:52.031Z,11.45
2023-01-19T19:52:27.749Z,12.02
2023-01-19T19:54:59.945Z,10.90
2023-01-19T19:57:32.252Z,10.60
2023-01-19T20:00:05.379Z,10.45
2023-01-19T20:02:38.561Z,10.50
2023-01-19T20:05:10.936Z,9.98
2023-01-19T20:07:47.226Z,11.95
2023-01-19T20:10:23.128Z,9.95
2023-01-19T20:12:57.099Z,12.35
2023-01-19T20:15:29.436Z,9.93
2023-01-19T20:18:02.463Z,10.35
2023-01-19T20:20:36.538Z,11.90
2023-01-19T20:23:09.174Z,13.00
2023-01-19T20:25:42.291Z,13.60
2023-01-19T20:28:15.282Z,13.30
2023-01-19T20:30:48.355Z,12.00
2023-01-19T20:33:20.695Z,11.30
2023-01-19T20:35:54.368Z,12.52
2023-01-19T20:38:26.976Z,12.10
2023-01-19T20:40:59.488Z,11.38
2023-01-19T20:43:31.773Z,10.68
2023-01-19T20:46:04.723Z,11.80
2023-01-19T20:48:39.054Z,11.05
2023-01-19T20:51:13.677Z,10.05
2023-01-19T20:53:47.285Z,10.73
2023-01-19T20:56:19.636Z,11.50
2023-01-19T20:58:52.467Z,12.38
2023-01-19T21:01:25.922Z,10.10
2023-01-19T21:03:59.005Z,14.23
2023-01-19T21:06:32.134Z,12.85
2023-01-19T21:09:05.153Z,11.70
2023-01-19T21:11:39.872Z,13.82
2023-01-19T21:14:12.086Z,12.95
2023-01-19T21:16:46.233Z,13.40
2023-01-19T21:19:19.025Z,12.10
2023-01-19T21:21:51.471Z,11.55
2023-01-19T21:24:23.845Z,12.82
2023-01-19T21:26:55.959Z,12.73
2023-01-19T21:29:28.207Z,10.10
2023-01-19T21:32:01.239Z,10.30
2023-01-19T21:34:34.367Z,10.75
2023-01-19T21:37:07.225Z,10.57
2023-01-19T21:39:39.593Z,11.25
2023-01-19T21:42:11.930Z,12.68
2023-01-19T21:44:44.262Z,12.68
2023-01-19T21:47:16.637Z,13.30
2023-01-19T21:49:48.818Z,11.68
2023-01-19T21:52:21.195Z,13.10
2023-01-19T21:54:53.332Z,12.80
2023-01-19T21:57:25.816Z,13.10
2023-01-19T21:59:58.193Z,14.10
2023-01-19T22:02:38.619Z,17.92
2023-01-19T22:05:12.234Z,15.57
2023-01-19T22:07:44.564Z,14.80
2023-01-19T22:10:17.221Z,15.82
2023-01-19T22:12:49.556Z,15.85
2023-01-19T22:15:21.689Z,14.68
2023-01-19T22:17:53.779Z,15.02
2023-01-19T22:20:26.181Z,14.50
2023-01-19T22:22:58.486Z,13.73
2023-01-19T22:25:32.809Z,14.57
2023-01-19T22:28:05.083Z,12.88
2023-01-19T22:30:37.361Z,13.88
2023-01-19T22:33:09.532Z,14.38
2023-01-19T22:35:41.862Z,15.23
2023-01-19T22:38:13.997Z,14.45
2023-01-19T22:40:46.204Z,15.13
2023-01-19T22:43:18.308Z,14.70
2023-01-19T22:45:50.381Z,14.45
2023-01-19T22:48:22.419Z,15.10
2023-01-19T22:50:58.283Z,16.20
2023-01-19T22:53:33.577Z,14.88
2023-01-19T22:56:23.691Z,14.85
2023-01-19T22:58:58.511Z,13.40
2023-01-19T23:01:34.235Z,12.88
2023-01-19T23:04:14.859Z,15.30
2023-01-19T23:06:50.512Z,13.30
2023-01-19T23:09:22.596Z,14.10
2023-01-19T23:11:54.681Z,14.75
2023-01-19T23:14:27.161Z,14.82
2023-01-19T23:17:00.261Z,12.98
2023-01-19T23:19:32.452Z,13.77
2023-01-19T23:22:04.604Z,13.45
2023-01-19T23:24:36.750Z,14.32
2023-01-19T23:27:08.826Z,16.50
2023-01-19T23:29:42.572Z,12.85
2023-01-19T23:32:14.707Z,12.00
2023-01-19T23:34:47.654Z,14.15
2023-01-19T23:37:19.728Z,12.75
2023-01-19T23:40:13.864Z,12.77
2023-01-19T23:42:46.043Z,13.68
2023-01-19T23:45:18.038Z,13.82
2023-01-19T23:47:50.281Z,12.80
2023-01-19T23:50:22.339Z,14.10
2023-01-19T23:52:55.329Z,15.00
2023-01-19T23:55:27.629Z,14.50
2023-01-19T23:57:59.670Z,13.30
